sensor_id;sensor_type;location;lat;lon;timestamp;P1;durP1;ratioP1;P2;durP2;ratioP2
39218;SDS011;24934;52.752;6.964;2023-03-23T00:02:19;24.53;;;20.93;;
39218;SDS011;24934;52.752;6.964;2023-03-23T00:04:57;23.03;;;20.73;;
39218;SDS011;24934;52.752;6.964;2023-03-23T00:07:25;23.90;;;20.90;;
39218;SDS011;24934;52.752;6.964;2023-03-23T00:09:52;24.73;;;21.37;;
39218;SDS011;24934;52.752;6.964;2023-03-23T00:12:22;23.50;;;21.07;;
39218;SDS011;24934;52.752;6.964;2023-03-23T00:14:54;25.20;;;21.50;;
39218;SDS011;24934;52.752;6.964;2023-03-23T00:17:20;22.67;;;20.37;;
39218;SDS011;24934;52.752;6.964;2023-03-23T00:19:48;24.83;;;22.03;;
39218;SDS011;24934;52.752;6.964;2023-03-23T00:22:14;24.40;;;21.00;;
39218;SDS011;24934;52.752;6.964;2023-03-23T00:24:41;22.93;;;20.60;;
39218;SDS011;24934;52.752;6.964;2023-03-23T00:27:09;23.27;;;20.23;;
39218;SDS011;24934;52.752;6.964;2023-03-23T00:29:37;22.73;;;20.33;;
39218;SDS011;24934;52.752;6.964;2023-03-23T00:32:03;23.03;;;20.63;;
39218;SDS011;24934;52.752;6.964;2023-03-23T00:34:29;23.60;;;20.53;;
39218;SDS011;24934;52.752;6.964;2023-03-23T00:36:57;22.30;;;19.90;;
39218;SDS011;24934;52.752;6.964;2023-03-23T00:39:24;22.40;;;19.73;;
39218;SDS011;24934;52.752;6.964;2023-03-23T00:41:51;22.27;;;19.93;;
39218;SDS011;24934;52.752;6.964;2023-03-23T00:44:18;22.40;;;20.07;;
39218;SDS011;24934;52.752;6.964;2023-03-23T00:46:47;25.00;;;19.90;;
39218;SDS011;24934;52.752;6.964;2023-03-23T00:49:15;22.03;;;19.73;;
39218;SDS011;24934;52.752;6.964;2023-03-23T00:51:43;21.20;;;19.07;;
39218;SDS011;24934;52.752;6.964;2023-03-23T00:54:09;20.60;;;18.40;;
39218;SDS011;24934;52.752;6.964;2023-03-23T00:56:35;20.67;;;18.53;;
39218;SDS011;24934;52.752;6.964;2023-03-23T00:59:02;21.17;;;18.40;;
39218;SDS011;24934;52.752;6.964;2023-03-23T01:01:28;20.83;;;18.63;;
39218;SDS011;24934;52.752;6.964;2023-03-23T01:03:53;20.20;;;18.03;;
39218;SDS011;24934;52.752;6.964;2023-03-23T01:06:26;24.40;;;18.97;;
39218;SDS011;24934;52.752;6.964;2023-03-23T01:08:53;21.17;;;18.87;;
39218;SDS011;24934;52.752;6.964;2023-03-23T01:11:19;20.33;;;18.20;;
39218;SDS011;24934;52.752;6.964;2023-03-23T01:13:47;20.13;;;18.13;;
39218;SDS011;24934;52.752;6.964;2023-03-23T01:16:13;21.87;;;18.77;;
39218;SDS011;24934;52.752;6.964;2023-03-23T01:18:38;19.73;;;17.83;;
39218;SDS011;24934;52.752;6.964;2023-03-23T01:21:05;21.97;;;18.03;;
39218;SDS011;24934;52.752;6.964;2023-03-23T01:23:33;20.67;;;18.43;;
39218;SDS011;24934;52.752;6.964;2023-03-23T01:26:10;19.27;;;17.43;;
39218;SDS011;24934;52.752;6.964;2023-03-23T01:28:37;20.03;;;17.97;;
39218;SDS011;24934;52.752;6.964;2023-03-23T01:31:04;20.47;;;18.37;;
39218;SDS011;24934;52.752;6.964;2023-03-23T01:33:37;19.77;;;17.67;;
39218;SDS011;24934;52.752;6.964;2023-03-23T01:36:05;19.63;;;17.63;;
39218;SDS011;24934;52.752;6.964;2023-03-23T01:38:33;20.77;;;18.67;;
39218;SDS011;24934;52.752;6.964;2023-03-23T01:41:00;19.97;;;18.00;;
39218;SDS011;24934;52.752;6.964;2023-03-23T01:43:26;21.43;;;19.07;;
39218;SDS011;24934;52.752;6.964;2023-03-23T01:45:52;19.63;;;17.73;;
39218;SDS011;24934;52.752;6.964;2023-03-23T01:50:52;19.23;;;17.43;;
39218;SDS011;24934;52.752;6.964;2023-03-23T01:53:26;19.80;;;17.80;;
39218;SDS011;24934;52.752;6.964;2023-03-23T01:56:14;19.03;;;17.13;;
39218;SDS011;24934;52.752;6.964;2023-03-23T01:58:44;18.97;;;17.10;;
39218;SDS011;24934;52.752;6.964;2023-03-23T02:01:11;18.83;;;16.93;;
39218;SDS011;24934;52.752;6.964;2023-03-23T02:03:41;19.87;;;17.77;;
39218;SDS011;24934;52.752;6.964;2023-03-23T02:06:10;17.93;;;16.17;;
39218;SDS011;24934;52.752;6.964;2023-03-23T02:08:36;21.97;;;17.10;;
39218;SDS011;24934;52.752;6.964;2023-03-23T02:11:16;18.63;;;16.90;;
39218;SDS011;24934;52.752;6.964;2023-03-23T02:13:44;17.30;;;15.70;;
39218;SDS011;24934;52.752;6.964;2023-03-23T02:21:50;18.53;;;16.73;;
39218;SDS011;24934;52.752;6.964;2023-03-23T02:34:58;17.50;;;15.90;;
39218;SDS011;24934;52.752;6.964;2023-03-23T02:39:56;17.70;;;15.90;;
39218;SDS011;24934;52.752;6.964;2023-03-23T02:42:32;18.40;;;16.40;;
39218;SDS011;24934;52.752;6.964;2023-03-23T02:45:02;18.23;;;15.30;;
39218;SDS011;24934;52.752;6.964;2023-03-23T02:47:31;16.67;;;15.17;;
39218;SDS011;24934;52.752;6.964;2023-03-23T02:49:58;18.33;;;16.40;;
39218;SDS011;24934;52.752;6.964;2023-03-23T02:52:29;17.57;;;15.87;;
39218;SDS011;24934;52.752;6.964;2023-03-23T02:54:56;18.30;;;15.90;;
39218;SDS011;24934;52.752;6.964;2023-03-23T02:57:24;17.70;;;16.10;;
39218;SDS011;24934;52.752;6.964;2023-03-23T02:59:52;17.33;;;15.77;;
39218;SDS011;24934;52.752;6.964;2023-03-23T03:02:59;17.17;;;15.73;;
39218;SDS011;24934;52.752;6.964;2023-03-23T03:05:44;17.87;;;16.07;;
39218;SDS011;24934;52.752;6.964;2023-03-23T03:11:07;17.47;;;15.90;;
39218;SDS011;24934;52.752;6.964;2023-03-23T03:22:06;17.70;;;15.90;;
39218;SDS011;24934;52.752;6.964;2023-03-23T03:24:33;16.30;;;14.90;;
39218;SDS011;24934;52.752;6.964;2023-03-23T03:27:02;17.13;;;15.43;;
39218;SDS011;24934;52.752;6.964;2023-03-23T03:29:34;17.07;;;15.40;;
39218;SDS011;24934;52.752;6.964;2023-03-23T03:32:06;16.53;;;15.13;;
39218;SDS011;24934;52.752;6.964;2023-03-23T03:34:36;16.63;;;15.17;;
39218;SDS011;24934;52.752;6.964;2023-03-23T03:37:02;16.20;;;14.80;;
39218;SDS011;24934;52.752;6.964;2023-03-23T03:39:30;16.80;;;15.17;;
39218;SDS011;24934;52.752;6.964;2023-03-23T03:41:59;16.40;;;15.00;;
39218;SDS011;24934;52.752;6.964;2023-03-23T03:44:25;17.43;;;15.73;;
39218;SDS011;24934;52.752;6.964;2023-03-23T03:46:51;15.87;;;14.47;;
39218;SDS011;24934;52.752;6.964;2023-03-23T03:49:16;16.17;;;14.67;;
39218;SDS011;24934;52.752;6.964;2023-03-23T03:51:42;16.50;;;14.90;;
39218;SDS011;24934;52.752;6.964;2023-03-23T03:54:08;16.53;;;14.90;;
39218;SDS011;24934;52.752;6.964;2023-03-23T03:56:33;15.70;;;14.37;;
39218;SDS011;24934;52.752;6.964;2023-03-23T03:59:01;16.17;;;14.77;;
39218;SDS011;24934;52.752;6.964;2023-03-23T04:01:27;15.97;;;14.37;;
39218;SDS011;24934;52.752;6.964;2023-03-23T04:03:53;15.40;;;14.10;;
39218;SDS011;24934;52.752;6.964;2023-03-23T04:06:20;16.23;;;14.83;;
39218;SDS011;24934;52.752;6.964;2023-03-23T04:08:46;14.70;;;13.30;;
39218;SDS011;24934;52.752;6.964;2023-03-23T04:11:12;15.40;;;14.00;;
39218;SDS011;24934;52.752;6.964;2023-03-23T04:13:39;15.57;;;14.13;;
39218;SDS011;24934;52.752;6.964;2023-03-23T04:16:05;14.90;;;13.60;;
39218;SDS011;24934;52.752;6.964;2023-03-23T04:18:31;15.47;;;14.07;;
39218;SDS011;24934;52.752;6.964;2023-03-23T04:20:58;16.10;;;14.70;;
39218;SDS011;24934;52.752;6.964;2023-03-23T04:23:24;16.27;;;14.77;;
39218;SDS011;24934;52.752;6.964;2023-03-23T04:25:51;16.50;;;15.10;;
39218;SDS011;24934;52.752;6.964;2023-03-23T04:28:22;17.33;;;14.80;;
39218;SDS011;24934;52.752;6.964;2023-03-23T04:30:50;16.63;;;15.03;;
39218;SDS011;24934;52.752;6.964;2023-03-23T04:33:19;15.90;;;14.50;;
39218;SDS011;24934;52.752;6.964;2023-03-23T04:35:47;16.43;;;15.03;;
39218;SDS011;24934;52.752;6.964;2023-03-23T04:38:16;16.07;;;14.53;;
39218;SDS011;24934;52.752;6.964;2023-03-23T04:40:45;15.87;;;14.47;;
39218;SDS011;24934;52.752;6.964;2023-03-23T04:43:11;16.00;;;14.37;;
39218;SDS011;24934;52.752;6.964;2023-03-23T04:45:37;16.23;;;14.53;;
39218;SDS011;24934;52.752;6.964;2023-03-23T04:48:06;16.93;;;15.10;;
39218;SDS011;24934;52.752;6.964;2023-03-23T04:50:33;16.47;;;14.87;;
39218;SDS011;24934;52.752;6.964;2023-03-23T04:53:00;15.73;;;14.43;;
39218;SDS011;24934;52.752;6.964;2023-03-23T04:55:29;16.20;;;14.53;;
39218;SDS011;24934;52.752;6.964;2023-03-23T04:57:57;17.10;;;14.47;;
39218;SDS011;24934;52.752;6.964;2023-03-23T05:00:26;16.20;;;14.37;;
39218;SDS011;24934;52.752;6.964;2023-03-23T05:02:52;15.70;;;14.10;;
39218;SDS011;24934;52.752;6.964;2023-03-23T05:05:21;15.53;;;13.90;;
39218;SDS011;24934;52.752;6.964;2023-03-23T05:07:47;15.13;;;13.37;;
39218;SDS011;24934;52.752;6.964;2023-03-23T05:10:14;14.10;;;12.70;;
39218;SDS011;24934;52.752;6.964;2023-03-23T05:12:40;14.53;;;13.03;;
39218;SDS011;24934;52.752;6.964;2023-03-23T05:15:07;14.00;;;12.60;;
39218;SDS011;24934;52.752;6.964;2023-03-23T05:17:37;14.27;;;12.80;;
39218;SDS011;24934;52.752;6.964;2023-03-23T05:20:03;13.50;;;12.23;;
39218;SDS011;24934;52.752;6.964;2023-03-23T05:22:33;14.37;;;12.97;;
39218;SDS011;24934;52.752;6.964;2023-03-23T05:24:59;15.03;;;13.53;;
39218;SDS011;24934;52.752;6.964;2023-03-23T05:27:27;16.17;;;12.50;;
39218;SDS011;24934;52.752;6.964;2023-03-23T05:29:55;15.13;;;13.53;;
39218;SDS011;24934;52.752;6.964;2023-03-23T05:32:23;14.97;;;13.57;;
39218;SDS011;24934;52.752;6.964;2023-03-23T05:34:54;14.40;;;12.93;;
39218;SDS011;24934;52.752;6.964;2023-03-23T05:37:21;16.03;;;14.53;;
39218;SDS011;24934;52.752;6.964;2023-03-23T05:39:48;18.97;;;17.20;;
39218;SDS011;24934;52.752;6.964;2023-03-23T05:42:13;19.63;;;16.87;;
39218;SDS011;24934;52.752;6.964;2023-03-23T05:44:39;16.43;;;14.80;;
39218;SDS011;24934;52.752;6.964;2023-03-23T05:47:05;16.30;;;14.77;;
39218;SDS011;24934;52.752;6.964;2023-03-23T05:49:30;15.03;;;13.47;;
39218;SDS011;24934;52.752;6.964;2023-03-23T05:51:57;15.53;;;13.97;;
39218;SDS011;24934;52.752;6.964;2023-03-23T05:54:23;15.80;;;13.57;;
39218;SDS011;24934;52.752;6.964;2023-03-23T05:56:49;16.40;;;13.40;;
39218;SDS011;24934;52.752;6.964;2023-03-23T05:59:17;20.20;;;14.27;;
39218;SDS011;24934;52.752;6.964;2023-03-23T06:01:43;17.27;;;13.47;;
39218;SDS011;24934;52.752;6.964;2023-03-23T06:04:09;15.43;;;13.73;;
39218;SDS011;24934;52.752;6.964;2023-03-23T06:06:36;19.53;;;15.17;;
39218;SDS011;24934;52.752;6.964;2023-03-23T06:09:02;17.77;;;15.83;;
39218;SDS011;24934;52.752;6.964;2023-03-23T06:11:28;16.90;;;15.13;;
39218;SDS011;24934;52.752;6.964;2023-03-23T06:13:54;19.83;;;16.30;;
39218;SDS011;24934;52.752;6.964;2023-03-23T06:16:19;22.73;;;16.87;;
39218;SDS011;24934;52.752;6.964;2023-03-23T06:18:45;19.33;;;15.93;;
39218;SDS011;24934;52.752;6.964;2023-03-23T06:21:11;18.13;;;16.20;;
39218;SDS011;24934;52.752;6.964;2023-03-23T06:23:37;20.20;;;16.30;;
39218;SDS011;24934;52.752;6.964;2023-03-23T06:26:04;18.57;;;16.80;;
39218;SDS011;24934;52.752;6.964;2023-03-23T06:28:32;21.63;;;17.03;;
39218;SDS011;24934;52.752;6.964;2023-03-23T06:31:03;19.90;;;17.03;;
39218;SDS011;24934;52.752;6.964;2023-03-23T06:33:34;22.80;;;18.10;;
39218;SDS011;24934;52.752;6.964;2023-03-23T06:36:01;18.67;;;16.87;;
39218;SDS011;24934;52.752;6.964;2023-03-23T06:38:27;23.13;;;17.40;;
39218;SDS011;24934;52.752;6.964;2023-03-23T06:40:53;19.53;;;17.60;;
39218;SDS011;24934;52.752;6.964;2023-03-23T06:43:20;24.13;;;16.97;;
39218;SDS011;24934;52.752;6.964;2023-03-23T06:45:46;22.40;;;16.83;;
39218;SDS011;24934;52.752;6.964;2023-03-23T06:48:11;20.10;;;17.03;;
39218;SDS011;24934;52.752;6.964;2023-03-23T06:50:37;21.67;;;17.47;;
39218;SDS011;24934;52.752;6.964;2023-03-23T06:53:03;28.37;;;17.53;;
39218;SDS011;24934;52.752;6.964;2023-03-23T06:55:28;24.73;;;17.37;;
39218;SDS011;24934;52.752;6.964;2023-03-23T06:57:57;25.57;;;17.40;;
39218;SDS011;24934;52.752;6.964;2023-03-23T07:00:25;27.37;;;17.60;;
39218;SDS011;24934;52.752;6.964;2023-03-23T07:02:50;25.07;;;17.70;;
39218;SDS011;24934;52.752;6.964;2023-03-23T07:05:16;24.60;;;17.83;;
39218;SDS011;24934;52.752;6.964;2023-03-23T07:07:42;23.03;;;17.33;;
39218;SDS011;24934;52.752;6.964;2023-03-23T07:10:08;25.67;;;18.13;;
39218;SDS011;24934;52.752;6.964;2023-03-23T07:12:35;21.87;;;17.63;;
39218;SDS011;24934;52.752;6.964;2023-03-23T07:15:04;24.03;;;18.07;;
39218;SDS011;24934;52.752;6.964;2023-03-23T07:17:32;27.87;;;18.20;;
39218;SDS011;24934;52.752;6.964;2023-03-23T07:19:58;26.90;;;18.33;;
39218;SDS011;24934;52.752;6.964;2023-03-23T07:22:23;21.53;;;18.03;;
39218;SDS011;24934;52.752;6.964;2023-03-23T07:24:49;26.50;;;19.00;;
39218;SDS011;24934;52.752;6.964;2023-03-23T07:27:15;26.87;;;17.17;;
39218;SDS011;24934;52.752;6.964;2023-03-23T07:29:40;27.63;;;17.17;;
39218;SDS011;24934;52.752;6.964;2023-03-23T07:32:06;24.23;;;17.57;;
39218;SDS011;24934;52.752;6.964;2023-03-23T07:34:35;18.97;;;16.10;;
39218;SDS011;24934;52.752;6.964;2023-03-23T07:37:02;24.13;;;17.23;;
39218;SDS011;24934;52.752;6.964;2023-03-23T07:39:28;20.47;;;16.43;;
39218;SDS011;24934;52.752;6.964;2023-03-23T07:41:54;21.53;;;16.10;;
39218;SDS011;24934;52.752;6.964;2023-03-23T07:44:20;21.73;;;15.63;;
39218;SDS011;24934;52.752;6.964;2023-03-23T07:46:46;18.67;;;15.30;;
39218;SDS011;24934;52.752;6.964;2023-03-23T07:49:12;20.97;;;15.33;;
39218;SDS011;24934;52.752;6.964;2023-03-23T07:51:38;16.37;;;14.67;;
39218;SDS011;24934;52.752;6.964;2023-03-23T07:54:05;20.73;;;14.50;;
39218;SDS011;24934;52.752;6.964;2023-03-23T07:56:32;20.60;;;14.70;;
39218;SDS011;24934;52.752;6.964;2023-03-23T07:58:58;15.60;;;13.87;;
39218;SDS011;24934;52.752;6.964;2023-03-23T08:01:25;21.77;;;14.83;;
39218;SDS011;24934;52.752;6.964;2023-03-23T08:03:51;19.73;;;13.93;;
39218;SDS011;24934;52.752;6.964;2023-03-23T08:06:19;19.53;;;14.00;;
39218;SDS011;24934;52.752;6.964;2023-03-23T08:08:46;22.83;;;14.77;;
39218;SDS011;24934;52.752;6.964;2023-03-23T08:11:12;19.30;;;13.80;;
39218;SDS011;24934;52.752;6.964;2023-03-23T08:13:40;23.30;;;14.53;;
39218;SDS011;24934;52.752;6.964;2023-03-23T08:16:06;24.33;;;15.00;;
39218;SDS011;24934;52.752;6.964;2023-03-23T08:18:34;18.43;;;14.23;;
39218;SDS011;24934;52.752;6.964;2023-03-23T08:21:00;21.47;;;14.37;;
39218;SDS011;24934;52.752;6.964;2023-03-23T08:23:26;22.20;;;13.90;;
39218;SDS011;24934;52.752;6.964;2023-03-23T08:25:52;27.30;;;14.20;;
39218;SDS011;24934;52.752;6.964;2023-03-23T08:28:18;24.03;;;14.50;;
39218;SDS011;24934;52.752;6.964;2023-03-23T08:30:44;21.87;;;14.30;;
39218;SDS011;24934;52.752;6.964;2023-03-23T08:33:10;25.40;;;14.73;;
39218;SDS011;24934;52.752;6.964;2023-03-23T08:35:36;21.43;;;14.63;;
39218;SDS011;24934;52.752;6.964;2023-03-23T08:38:03;19.37;;;13.53;;
39218;SDS011;24934;52.752;6.964;2023-03-23T08:40:28;22.93;;;13.80;;
39218;SDS011;24934;52.752;6.964;2023-03-23T08:42:54;27.30;;;14.80;;
39218;SDS011;24934;52.752;6.964;2023-03-23T08:45:21;21.87;;;14.13;;
39218;SDS011;24934;52.752;6.964;2023-03-23T08:47:48;21.63;;;14.63;;
39218;SDS011;24934;52.752;6.964;2023-03-23T08:50:17;23.07;;;14.37;;
39218;SDS011;24934;52.752;6.964;2023-03-23T08:52:45;23.83;;;14.70;;
39218;SDS011;24934;52.752;6.964;2023-03-23T08:55:12;19.40;;;14.20;;
39218;SDS011;24934;52.752;6.964;2023-03-23T08:57:38;22.47;;;13.80;;
39218;SDS011;24934;52.752;6.964;2023-03-23T09:00:06;20.00;;;13.75;;
39218;SDS011;24934;52.752;6.964;2023-03-23T09:02:47;20.73;;;15.10;;
39218;SDS011;24934;52.752;6.964;2023-03-23T09:05:15;24.40;;;15.07;;
39218;SDS011;24934;52.752;6.964;2023-03-23T09:07:43;24.60;;;15.10;;
39218;SDS011;24934;52.752;6.964;2023-03-23T09:10:10;24.80;;;16.10;;
39218;SDS011;24934;52.752;6.964;2023-03-23T09:12:38;22.10;;;15.63;;
39218;SDS011;24934;52.752;6.964;2023-03-23T09:15:05;22.13;;;14.97;;
39218;SDS011;24934;52.752;6.964;2023-03-23T09:17:37;22.83;;;15.90;;
39218;SDS011;24934;52.752;6.964;2023-03-23T09:20:04;22.27;;;14.83;;
39218;SDS011;24934;52.752;6.964;2023-03-23T09:22:42;23.63;;;15.23;;
39218;SDS011;24934;52.752;6.964;2023-03-23T09:25:10;26.23;;;16.00;;
39218;SDS011;24934;52.752;6.964;2023-03-23T09:27:38;18.60;;;16.03;;
39218;SDS011;24934;52.752;6.964;2023-03-23T09:30:09;21.90;;;15.70;;
39218;SDS011;24934;52.752;6.964;2023-03-23T09:32:36;27.87;;;16.73;;
39218;SDS011;24934;52.752;6.964;2023-03-23T09:35:05;24.70;;;16.00;;
39218;SDS011;24934;52.752;6.964;2023-03-23T09:37:37;21.13;;;15.03;;
39218;SDS011;24934;52.752;6.964;2023-03-23T09:40:13;22.53;;;15.60;;
39218;SDS011;24934;52.752;6.964;2023-03-23T09:51:02;18.17;;;14.17;;
39218;SDS011;24934;52.752;6.964;2023-03-23T09:53:47;23.70;;;14.07;;
39218;SDS011;24934;52.752;6.964;2023-03-23T09:56:17;16.77;;;14.48;;
39218;SDS011;24934;52.752;6.964;2023-03-23T10:01:12;16.77;;;15.10;;
39218;SDS011;24934;52.752;6.964;2023-03-23T10:03:52;19.05;;;14.68;;
39218;SDS011;24934;52.752;6.964;2023-03-23T10:06:25;18.38;;;14.60;;
39218;SDS011;24934;52.752;6.964;2023-03-23T10:08:53;15.73;;;14.10;;
39218;SDS011;24934;52.752;6.964;2023-03-23T10:14:00;17.97;;;14.27;;
39218;SDS011;24934;52.752;6.964;2023-03-23T10:16:42;20.05;;;14.05;;
39218;SDS011;24934;52.752;6.964;2023-03-23T10:19:23;19.95;;;14.98;;
39218;SDS011;24934;52.752;6.964;2023-03-23T10:22:01;20.63;;;14.00;;
39218;SDS011;24934;52.752;6.964;2023-03-23T10:24:43;17.75;;;13.98;;
39218;SDS011;24934;52.752;6.964;2023-03-23T10:27:26;16.50;;;14.27;;
39218;SDS011;24934;52.752;6.964;2023-03-23T10:30:17;19.52;;;14.23;;
39218;SDS011;24934;52.752;6.964;2023-03-23T10:32:50;17.60;;;13.98;;
39218;SDS011;24934;52.752;6.964;2023-03-23T10:35:23;18.55;;;13.63;;
39218;SDS011;24934;52.752;6.964;2023-03-23T10:38:14;15.30;;;13.68;;
39218;SDS011;24934;52.752;6.964;2023-03-23T10:40:48;19.70;;;15.02;;
39218;SDS011;24934;52.752;6.964;2023-03-23T10:43:18;17.23;;;15.23;;
39218;SDS011;24934;52.752;6.964;2023-03-23T10:45:44;16.95;;;14.27;;
39218;SDS011;24934;52.752;6.964;2023-03-23T10:48:16;15.90;;;14.25;;
39218;SDS011;24934;52.752;6.964;2023-03-23T10:50:49;18.35;;;15.30;;
39218;SDS011;24934;52.752;6.964;2023-03-23T10:53:26;15.18;;;13.65;;
39218;SDS011;24934;52.752;6.964;2023-03-23T10:55:55;16.80;;;14.27;;
39218;SDS011;24934;52.752;6.964;2023-03-23T10:58:25;16.38;;;13.40;;
39218;SDS011;24934;52.752;6.964;2023-03-23T11:00:54;14.77;;;13.25;;
39218;SDS011;24934;52.752;6.964;2023-03-23T11:03:25;15.57;;;13.73;;
39218;SDS011;24934;52.752;6.964;2023-03-23T11:06:03;16.23;;;12.82;;
39218;SDS011;24934;52.752;6.964;2023-03-23T11:08:33;17.13;;;14.32;;
39218;SDS011;24934;52.752;6.964;2023-03-23T11:11:16;16.60;;;14.75;;
39218;SDS011;24934;52.752;6.964;2023-03-23T11:13:56;16.95;;;12.95;;
39218;SDS011;24934;52.752;6.964;2023-03-23T11:16:30;15.15;;;13.55;;
39218;SDS011;24934;52.752;6.964;2023-03-23T11:18:59;15.85;;;13.65;;
39218;SDS011;24934;52.752;6.964;2023-03-23T11:21:36;18.98;;;14.25;;
39218;SDS011;24934;52.752;6.964;2023-03-23T11:24:11;14.25;;;12.55;;
39218;SDS011;24934;52.752;6.964;2023-03-23T11:26:37;16.10;;;12.98;;
39218;SDS011;24934;52.752;6.964;2023-03-23T11:29:05;17.25;;;13.93;;
39218;SDS011;24934;52.752;6.964;2023-03-23T11:31:40;18.58;;;13.88;;
39218;SDS011;24934;52.752;6.964;2023-03-23T11:36:37;17.10;;;14.05;;
39218;SDS011;24934;52.752;6.964;2023-03-23T11:41:51;16.92;;;14.88;;
39218;SDS011;24934;52.752;6.964;2023-03-23T11:44:21;20.52;;;14.57;;
39218;SDS011;24934;52.752;6.964;2023-03-23T11:49:35;19.00;;;14.88;;
39218;SDS011;24934;52.752;6.964;2023-03-23T11:55:37;18.90;;;14.45;;
39218;SDS011;24934;52.752;6.964;2023-03-23T11:58:13;16.70;;;14.13;;
39218;SDS011;24934;52.752;6.964;2023-03-23T12:00:44;17.73;;;14.60;;
39218;SDS011;24934;52.752;6.964;2023-03-23T12:12:17;19.92;;;15.25;;
39218;SDS011;24934;52.752;6.964;2023-03-23T12:14:55;18.60;;;15.00;;
39218;SDS011;24934;52.752;6.964;2023-03-23T12:18:02;18.70;;;15.20;;
39218;SDS011;24934;52.752;6.964;2023-03-23T12:20:30;18.67;;;15.05;;
39218;SDS011;24934;52.752;6.964;2023-03-23T12:23:29;20.23;;;15.15;;
39218;SDS011;24934;52.752;6.964;2023-03-23T12:26:10;21.33;;;13.90;;
39218;SDS011;24934;52.752;6.964;2023-03-23T12:29:10;22.10;;;15.82;;
39218;SDS011;24934;52.752;6.964;2023-03-23T12:35:05;21.25;;;15.52;;
39218;SDS011;24934;52.752;6.964;2023-03-23T12:37:45;20.65;;;14.65;;
39218;SDS011;24934;52.752;6.964;2023-03-23T12:40:35;19.23;;;15.18;;
39218;SDS011;24934;52.752;6.964;2023-03-23T12:48:46;22.77;;;16.25;;
39218;SDS011;24934;52.752;6.964;2023-03-23T12:56:41;21.05;;;15.05;;
39218;SDS011;24934;52.752;6.964;2023-03-23T13:01:40;19.60;;;16.05;;
39218;SDS011;24934;52.752;6.964;2023-03-23T13:04:55;17.38;;;15.57;;
39218;SDS011;24934;52.752;6.964;2023-03-23T13:07:02;19.88;;;15.90;;
39218;SDS011;24934;52.752;6.964;2023-03-23T13:09:49;17.70;;;15.63;;
39218;SDS011;24934;52.752;6.964;2023-03-23T13:12:29;19.85;;;15.50;;
39218;SDS011;24934;52.752;6.964;2023-03-23T13:17:52;19.02;;;16.40;;
39218;SDS011;24934;52.752;6.964;2023-03-23T13:23:29;16.95;;;14.38;;
39218;SDS011;24934;52.752;6.964;2023-03-23T13:26:08;18.42;;;14.38;;
39218;SDS011;24934;52.752;6.964;2023-03-23T13:28:56;17.83;;;15.07;;
39218;SDS011;24934;52.752;6.964;2023-03-23T13:31:24;16.70;;;14.77;;
39218;SDS011;24934;52.752;6.964;2023-03-23T13:33:57;19.08;;;14.48;;
39218;SDS011;24934;52.752;6.964;2023-03-23T13:36:26;19.30;;;14.05;;
39218;SDS011;24934;52.752;6.964;2023-03-23T13:38:54;17.85;;;14.20;;
39218;SDS011;24934;52.752;6.964;2023-03-23T13:41:24;16.63;;;14.20;;
39218;SDS011;24934;52.752;6.964;2023-03-23T13:43:52;14.93;;;13.18;;
39218;SDS011;24934;52.752;6.964;2023-03-23T13:46:30;15.55;;;13.23;;
39218;SDS011;24934;52.752;6.964;2023-03-23T13:59:32;21.50;;;17.10;;
39218;SDS011;24934;52.752;6.964;2023-03-23T14:05:08;24.13;;;19.02;;
39218;SDS011;24934;52.752;6.964;2023-03-23T14:10:51;25.67;;;18.90;;
39218;SDS011;24934;52.752;6.964;2023-03-23T14:13:31;27.73;;;19.83;;
39218;SDS011;24934;52.752;6.964;2023-03-23T14:16:05;24.98;;;20.05;;
39218;SDS011;24934;52.752;6.964;2023-03-23T14:18:53;24.35;;;20.23;;
39218;SDS011;24934;52.752;6.964;2023-03-23T14:21:31;27.65;;;20.95;;
39218;SDS011;24934;52.752;6.964;2023-03-23T14:27:30;22.02;;;19.77;;
39218;SDS011;24934;52.752;6.964;2023-03-23T14:29:58;24.02;;;19.50;;
39218;SDS011;24934;52.752;6.964;2023-03-23T14:32:25;24.15;;;20.20;;
39218;SDS011;24934;52.752;6.964;2023-03-23T14:34:53;22.80;;;19.00;;
39218;SDS011;24934;52.752;6.964;2023-03-23T14:37:20;25.13;;;19.38;;
39218;SDS011;24934;52.752;6.964;2023-03-23T14:39:47;22.55;;;19.13;;
39218;SDS011;24934;52.752;6.964;2023-03-23T14:42:26;21.83;;;19.58;;
39218;SDS011;24934;52.752;6.964;2023-03-23T14:44:54;21.60;;;19.42;;
39218;SDS011;24934;52.752;6.964;2023-03-23T14:49:54;20.90;;;18.70;;
39218;SDS011;24934;52.752;6.964;2023-03-23T14:52:24;24.05;;;18.95;;
39218;SDS011;24934;52.752;6.964;2023-03-23T14:54:51;20.35;;;18.17;;
39218;SDS011;24934;52.752;6.964;2023-03-23T14:57:18;19.98;;;17.88;;
39218;SDS011;24934;52.752;6.964;2023-03-23T14:59:51;22.17;;;18.08;;
39218;SDS011;24934;52.752;6.964;2023-03-23T15:04:49;25.70;;;20.35;;
39218;SDS011;24934;52.752;6.964;2023-03-23T15:07:20;22.30;;;19.70;;
39218;SDS011;24934;52.752;6.964;2023-03-23T15:09:48;29.92;;;19.75;;
39218;SDS011;24934;52.752;6.964;2023-03-23T15:12:21;23.90;;;18.35;;
39218;SDS011;24934;52.752;6.964;2023-03-23T15:14:51;23.55;;;17.08;;
39218;SDS011;24934;52.752;6.964;2023-03-23T15:17:20;21.48;;;17.05;;
39218;SDS011;24934;52.752;6.964;2023-03-23T15:19:52;19.65;;;17.27;;
39218;SDS011;24934;52.752;6.964;2023-03-23T15:22:26;18.48;;;16.55;;
39218;SDS011;24934;52.752;6.964;2023-03-23T15:25:03;22.40;;;17.00;;
39218;SDS011;24934;52.752;6.964;2023-03-23T15:27:40;18.47;;;16.63;;
39218;SDS011;24934;52.752;6.964;2023-03-23T15:32:52;19.00;;;16.73;;
39218;SDS011;24934;52.752;6.964;2023-03-23T15:35:21;20.08;;;17.02;;
39218;SDS011;24934;52.752;6.964;2023-03-23T15:37:52;19.48;;;17.48;;
39218;SDS011;24934;52.752;6.964;2023-03-23T15:40:23;21.65;;;17.88;;
39218;SDS011;24934;52.752;6.964;2023-03-23T15:42:50;18.73;;;16.92;;
39218;SDS011;24934;52.752;6.964;2023-03-23T15:45:50;19.67;;;17.50;;
39218;SDS011;24934;52.752;6.964;2023-03-23T15:48:31;20.23;;;18.05;;
39218;SDS011;24934;52.752;6.964;2023-03-23T15:50:58;20.10;;;18.02;;
39218;SDS011;24934;52.752;6.964;2023-03-23T15:53:34;19.70;;;17.38;;
39218;SDS011;24934;52.752;6.964;2023-03-23T15:56:03;22.73;;;18.00;;
39218;SDS011;24934;52.752;6.964;2023-03-23T15:58:31;24.73;;;16.63;;
39218;SDS011;24934;52.752;6.964;2023-03-23T16:00:57;20.45;;;16.67;;
39218;SDS011;24934;52.752;6.964;2023-03-23T16:03:27;20.98;;;15.68;;
39218;SDS011;24934;52.752;6.964;2023-03-23T16:05:58;21.10;;;17.08;;
39218;SDS011;24934;52.752;6.964;2023-03-23T16:08:24;25.23;;;18.42;;
39218;SDS011;24934;52.752;6.964;2023-03-23T16:10:50;20.85;;;17.92;;
39218;SDS011;24934;52.752;6.964;2023-03-23T16:13:16;22.92;;;17.35;;
39218;SDS011;24934;52.752;6.964;2023-03-23T16:15:42;22.98;;;17.48;;
39218;SDS011;24934;52.752;6.964;2023-03-23T16:18:17;26.23;;;17.50;;
39218;SDS011;24934;52.752;6.964;2023-03-23T16:20:45;20.87;;;18.30;;
39218;SDS011;24934;52.752;6.964;2023-03-23T16:23:12;21.07;;;18.47;;
39218;SDS011;24934;52.752;6.964;2023-03-23T16:25:38;21.17;;;18.83;;
39218;SDS011;24934;52.752;6.964;2023-03-23T16:28:03;20.40;;;17.42;;
39218;SDS011;24934;52.752;6.964;2023-03-23T16:30:31;23.23;;;17.57;;
39218;SDS011;24934;52.752;6.964;2023-03-23T16:32:59;22.00;;;17.38;;
39218;SDS011;24934;52.752;6.964;2023-03-23T16:35:25;17.92;;;15.95;;